Time;durP1;ratioP1;P1;durP2;ratioP2;P2;SDS_P1;SDS_P2;PMS_P1;PMS_P2;Temp;Humidity;BMP_temperature;BMP_pressure;BME280_temperature;BME280_humidity;BME280_pressure;Samples;Min_cycle;Max_cycle;Signal;HPM_P1;HPM_P2
2023/09/24 00:01:07;;;;;;;0.10;0.10;;;;;;;13.49;73.43;102343.22;5058814;28;20093;-78
2023/09/24 00:03:34;;;;;;;0.10;0.10;;;;;;;13.44;73.63;102345.91;5058862;28;20074;-78
2023/09/24 00:06:05;;;;;;;1.75;1.00;;;;;;;13.46;73.50;102338.81;5051559;28;20059;-78
2023/09/24 00:08:32;;;;;;;0.10;0.10;;;;;;;13.43;73.41;102338.81;5051781;28;20025;-78
2023/09/24 00:10:58;;;;;;;0.10;0.10;;;;;;;13.39;73.48;102334.41;5056366;28;20017;-77
2023/09/24 00:13:24;;;;;;;0.10;0.10;;;;;;;13.40;73.32;102338.84;5056183;28;20489;-78
2023/09/24 00:15:51;;;;;;;0.20;0.20;;;;;;;13.38;73.54;102335.31;5060052;28;20503;-78
2023/09/24 00:18:19;;;;;;;0.10;0.10;;;;;;;13.40;73.48;102341.50;5063730;28;20112;-78
2023/09/24 00:20:46;;;;;;;0.10;0.10;;;;;;;13.38;73.23;102340.63;5055718;28;20040;-78
2023/09/24 00:23:14;;;;;;;0.10;0.10;;;;;;;13.39;73.07;102350.41;5049772;28;20021;-75
2023/09/24 00:25:40;;;;;;;0.10;0.10;;;;;;;13.35;73.79;102352.16;5054435;28;20032;-78
2023/09/24 00:28:08;;;;;;;0.10;0.10;;;;;;;13.36;73.30;102347.75;5063478;28;20055;-76
2023/09/24 00:30:36;;;;;;;0.10;0.10;;;;;;;13.36;73.51;102347.75;5054883;28;20159;-77
2023/09/24 00:33:03;;;;;;;0.10;0.10;;;;;;;13.37;73.52;102341.50;5056459;28;20016;-77
2023/09/24 00:35:31;;;;;;;0.10;0.10;;;;;;;13.36;73.30;102353.06;5062286;28;20028;-77
2023/09/24 00:37:57;;;;;;;0.10;0.10;;;;;;;13.34;73.08;102350.38;5061730;28;20017;-77
2023/09/24 00:40:23;;;;;;;0.10;0.10;;;;;;;13.33;73.30;102353.94;5060261;28;20036;-77
2023/09/24 00:42:50;;;;;;;0.10;0.10;;;;;;;13.32;73.41;102352.19;5054025;28;20025;-76
2023/09/24 00:45:16;;;;;;;0.10;0.10;;;;;;;13.29;73.30;102348.66;5072414;28;20040;-76
2023/09/24 00:47:44;;;;;;;0.10;0.10;;;;;;;13.29;73.38;102356.66;5072424;28;20044;-76
2023/09/24 00:50:11;;;;;;;0.15;0.15;;;;;;;13.26;73.07;102355.78;5066006;28;20025;-76
2023/09/24 00:52:37;;;;;;;0.25;0.25;;;;;;;13.23;73.25;102357.56;5052381;28;20394;-77
2023/09/24 00:55:08;;;;;;;0.10;0.10;;;;;;;13.23;73.03;102353.16;5052676;28;20029;-76
2023/09/24 00:57:36;;;;;;;1.55;0.43;;;;;;;13.17;73.43;102355.84;5054840;28;20040;-77
2023/09/24 01:00:11;;;;;;;0.10;0.10;;;;;;;13.20;72.86;102354.94;5070921;28;20028;-76
2023/09/24 01:02:39;;;;;;;0.10;0.10;;;;;;;13.19;72.72;102362.03;5067387;28;20498;-76
2023/09/24 01:05:09;;;;;;;0.30;0.30;;;;;;;13.13;72.99;102362.06;5062236;28;20037;-76
2023/09/24 01:07:36;;;;;;;0.10;0.10;;;;;;;13.13;73.10;102362.06;5065818;28;20486;-77
2023/09/24 01:10:03;;;;;;;0.38;0.38;;;;;;;13.09;73.41;102361.19;5052306;28;20021;-76
2023/09/24 01:12:29;;;;;;;0.10;0.10;;;;;;;13.11;72.73;102364.75;5064439;28;20401;-77
2023/09/24 01:14:57;;;;;;;0.10;0.10;;;;;;;13.10;72.50;102357.66;5071346;28;20078;-77
2023/09/24 01:17:25;;;;;;;0.10;0.10;;;;;;;13.07;72.91;102359.44;5071702;28;20059;-77
2023/09/24 01:19:53;;;;;;;0.20;0.20;;;;;;;13.09;72.58;102362.97;5059540;28;20024;-77
2023/09/24 01:22:20;;;;;;;0.38;0.38;;;;;;;13.09;72.88;102365.66;5071725;28;20028;-77
2023/09/24 01:24:46;;;;;;;0.10;0.10;;;;;;;13.07;72.39;102359.44;5072945;28;20032;-77
2023/09/24 01:27:13;;;;;;;0.10;0.10;;;;;;;13.05;72.53;102359.47;5054950;28;20040;-77
2023/09/24 01:29:40;;;;;;;0.10;0.10;;;;;;;13.03;72.83;102358.56;5055265;28;20535;-77
2023/09/24 01:32:06;;;;;;;0.10;0.10;;;;;;;13.01;72.33;102359.47;5069810;28;20037;-77
2023/09/24 01:34:36;;;;;;;0.10;0.10;;;;;;;13.00;72.65;102363.94;5051765;28;20082;-77
2023/09/24 01:37:08;;;;;;;0.85;0.85;;;;;;;12.97;72.27;102355.06;5069181;28;20024;-77
2023/09/24 01:39:36;;;;;;;0.20;0.20;;;;;;;12.94;72.62;102371.94;5071989;28;20029;-77
2023/09/24 01:42:02;;;;;;;0.10;0.10;;;;;;;12.92;72.30;102371.06;5065887;28;20028;-78
2023/09/24 01:44:32;;;;;;;0.10;0.10;;;;;;;12.91;72.10;102372.84;5066420;28;20374;-77
2023/09/24 01:46:59;;;;;;;0.10;0.10;;;;;;;12.91;71.94;102369.28;5065600;28;20033;-77
2023/09/24 01:49:25;;;;;;;0.10;0.10;;;;;;;12.89;72.56;102368.44;5069212;28;20502;-76
2023/09/24 01:51:51;;;;;;;0.20;0.20;;;;;;;12.87;72.23;102371.09;5069873;28;20108;-76
2023/09/24 01:54:17;;;;;;;0.20;0.20;;;;;;;12.85;72.44;102372.88;5068014;28;20542;-76
2023/09/24 01:56:43;;;;;;;0.10;0.10;;;;;;;12.85;72.27;102383.50;5051224;28;20029;-76
2023/09/24 01:59:09;;;;;;;0.10;0.10;;;;;;;12.82;72.28;102378.19;5068240;28;20035;-76
2023/09/24 02:01:35;;;;;;;0.10;0.10;;;;;;;12.79;72.57;102373.78;5059386;28;20079;-76
2023/09/24 02:04:03;;;;;;;0.10;0.10;;;;;;;12.81;72.02;102381.78;5051194;28;20103;-77
2023/09/24 02:06:30;;;;;;;0.10;0.10;;;;;;;12.79;72.10;102383.53;5052481;28;20413;-77
2023/09/24 02:08:56;;;;;;;0.10;0.10;;;;;;;12.79;72.08;102378.22;5067886;28;20024;-77
2023/09/24 02:11:23;;;;;;;0.10;0.10;;;;;;;12.75;72.73;102381.78;5063555;28;20032;-78
2023/09/24 02:13:49;;;;;;;0.25;0.25;;;;;;;12.76;72.33;102378.22;5056446;28;20032;-76
2023/09/24 02:16:15;;;;;;;0.10;0.10;;;;;;;12.76;72.47;102375.56;5059960;28;20052;-77
2023/09/24 02:18:41;;;;;;;0.10;0.10;;;;;;;12.76;72.27;102375.56;5065084;28;20067;-77
2023/09/24 02:21:14;;;;;;;0.10;0.10;;;;;;;12.75;72.67;102381.78;5070900;28;20032;-77
2023/09/24 02:23:42;;;;;;;0.10;0.10;;;;;;;12.73;72.72;102379.13;5066915;28;20056;-77
2023/09/24 02:26:08;;;;;;;0.10;0.10;;;;;;;12.73;72.23;102378.25;5069800;28;20024;-77
2023/09/24 02:28:38;;;;;;;0.10;0.10;;;;;;;12.71;72.60;102377.34;5070240;28;20561;-76
2023/09/24 02:31:05;;;;;;;0.10;0.10;;;;;;;12.71;72.22;102380.03;5066520;28;20028;-76
2023/09/24 02:33:32;;;;;;;0.50;0.50;;;;;;;12.68;72.37;102372.94;5070592;28;20028;-76
2023/09/24 02:35:58;;;;;;;0.10;0.10;;;;;;;12.67;72.60;102370.28;5070338;28;20516;-76
2023/09/24 02:38:25;;;;;;;0.10;0.10;;;;;;;12.64;72.70;102375.63;5070606;28;20482;-76
2023/09/24 02:40:55;;;;;;;0.10;0.10;;;;;;;12.64;72.70;102373.84;5070714;28;20070;-76
2023/09/24 02:43:23;;;;;;;0.10;0.10;;;;;;;12.65;72.90;102377.38;5065134;28;20025;-76
2023/09/24 02:45:49;;;;;;;0.10;0.10;;;;;;;12.65;72.45;102385.38;5069665;28;20025;-76
2023/09/24 02:48:18;;;;;;;0.10;0.10;;;;;;;12.64;72.63;102378.31;5070769;28;20555;-76
2023/09/24 02:50:45;;;;;;;0.20;0.20;;;;;;;12.62;72.65;102380.94;5071013;28;20028;-77
2023/09/24 02:53:11;;;;;;;0.10;0.10;;;;;;;12.59;72.44;102376.53;5071296;28;20028;-77
2023/09/24 02:55:38;;;;;;;0.10;0.10;;;;;;;12.58;72.69;102380.06;5070165;28;20032;-76
2023/09/24 02:58:05;;;;;;;0.20;0.20;;;;;;;12.58;72.68;102385.38;5064057;28;20130;-76
2023/09/24 03:00:35;;;;;;;0.10;0.10;;;;;;;12.58;72.34;102385.38;5069708;28;20028;-76
2023/09/24 03:03:05;;;;;;;0.85;0.85;;;;;;;12.57;72.37;102388.97;5070591;28;20036;-76
2023/09/24 03:05:31;;;;;;;0.10;0.10;;;;;;;12.55;72.29;102385.41;5069594;28;20020;-77
2023/09/24 03:08:00;;;;;;;0.10;0.10;;;;;;;12.56;72.65;102392.50;5070562;28;20032;-78
2023/09/24 03:10:28;;;;;;;0.20;0.20;;;;;;;12.53;72.84;102399.59;5070597;28;20028;-76
2023/09/24 03:12:55;;;;;;;0.10;0.10;;;;;;;12.51;73.06;102399.63;5059896;28;20115;-76
2023/09/24 03:15:21;;;;;;;0.45;0.45;;;;;;;12.48;72.81;102394.28;5069850;28;20028;-76
2023/09/24 03:17:47;;;;;;;0.10;0.10;;;;;;;12.48;72.51;102399.59;5070070;28;20036;-76
2023/09/24 03:20:15;;;;;;;0.10;0.10;;;;;;;12.49;72.49;102406.69;5070016;28;20021;-76
2023/09/24 03:22:48;;;;;;;0.10;0.10;;;;;;;12.50;72.72;102405.81;5069979;28;20378;-76
2023/09/24 03:25:17;;;;;;;0.10;0.10;;;;;;;12.47;73.01;102408.47;5070258;28;20108;-76
2023/09/24 03:27:44;;;;;;;0.10;0.10;;;;;;;12.46;72.57;102402.28;5068347;28;20024;-76
2023/09/24 03:30:13;;;;;;;0.10;0.10;;;;;;;12.44;72.57;102413.81;5070120;28;20029;-76
2023/09/24 03:32:40;;;;;;;0.10;0.10;;;;;;;12.44;72.21;102417.34;5069828;28;20042;-76
2023/09/24 03:35:09;;;;;;;0.15;0.15;;;;;;;12.43;72.52;102420.88;5069250;28;20028;-75
2023/09/24 03:37:37;;;;;;;0.10;0.10;;;;;;;12.41;72.45;102421.78;5069648;28;20054;-76
2023/09/24 03:40:08;;;;;;;0.10;0.10;;;;;;;12.41;72.48;102419.13;5070276;28;20136;-76
2023/09/24 03:42:35;;;;;;;1.10;0.68;;;;;;;12.38;72.86;102427.09;5067242;28;20025;-76
2023/09/24 03:45:01;;;;;;;0.10;0.10;;;;;;;12.35;72.36;102421.78;5069978;28;20382;-76
2023/09/24 03:47:27;;;;;;;0.20;0.20;;;;;;;12.33;72.68;102432.44;5069120;28;20040;-76
2023/09/24 03:49:53;;;;;;;0.10;0.10;;;;;;;12.34;72.84;102425.34;5070319;28;20041;-76
2023/09/24 03:52:20;;;;;;;0.10;0.10;;;;;;;12.33;72.43;102426.25;5069419;28;20478;-76
2023/09/24 03:54:46;;;;;;;0.30;0.30;;;;;;;12.30;73.04;102422.69;5069909;28;20028;-76
2023/09/24 03:57:12;;;;;;;0.10;0.10;;;;;;;12.30;72.22;102425.34;5068163;28;20062;-76
2023/09/24 03:59:38;;;;;;;0.10;0.10;;;;;;;12.30;72.88;102421.81;5069992;28;20031;-76
2023/09/24 04:02:07;;;;;;;0.10;0.10;;;;;;;12.28;72.56;102434.22;5069363;28;20078;-75
2023/09/24 04:04:36;;;;;;;0.20;0.20;;;;;;;12.27;72.85;102433.34;5072172;28;20108;-76
2023/09/24 04:07:03;;;;;;;0.10;0.10;;;;;;;12.27;72.66;102438.66;5072711;28;20028;-76
2023/09/24 04:09:33;;;;;;;0.20;0.20;;;;;;;12.28;72.89;102439.53;5073909;28;20119;-76
2023/09/24 04:12:00;;;;;;;0.10;0.10;;;;;;;12.26;72.88;102434.22;5073074;28;20048;-76
2023/09/24 04:14:26;;;;;;;0.10;0.10;;;;;;;12.27;72.29;102441.31;5072655;28;20036;-76
2023/09/24 04:16:52;;;;;;;0.10;0.10;;;;;;;12.25;72.49;102445.72;5072568;28;20383;-76
2023/09/24 04:19:19;;;;;;;0.10;0.10;;;;;;;12.25;72.53;102437.75;5073473;28;20052;-76
2023/09/24 04:21:45;;;;;;;0.40;0.40;;;;;;;12.25;72.46;102440.41;5073151;28;20413;-76
2023/09/24 04:24:13;;;;;;;0.10;0.10;;;;;;;12.23;73.13;102450.16;5072921;28;20025;-76
2023/09/24 04:26:40;;;;;;;0.20;0.20;;;;;;;12.23;72.50;102450.16;5072311;28;20025;-76
2023/09/24 04:29:06;;;;;;;0.20;0.20;;;;;;;12.22;72.57;102456.34;5070142;28;20020;-76
2023/09/24 04:31:32;;;;;;;0.10;0.10;;;;;;;12.21;72.56;102448.38;5073207;28;20036;-76
2023/09/24 04:33:58;;;;;;;0.10;0.10;;;;;;;12.21;72.72;102457.25;5072802;28;20138;-76
2023/09/24 04:36:24;;;;;;;0.10;0.10;;;;;;;12.20;72.57;102458.16;5072362;28;20032;-76
2023/09/24 04:38:52;;;;;;;0.20;0.20;;;;;;;12.20;73.05;102457.25;5073319;28;20060;-76
2023/09/24 04:41:20;;;;;;;0.10;0.10;;;;;;;12.20;72.98;102458.16;5058863;28;20062;-76
2023/09/24 04:43:47;;;;;;;0.10;0.10;;;;;;;12.20;73.02;102451.94;5070798;28;20494;-76
2023/09/24 04:46:14;;;;;;;0.10;0.10;;;;;;;12.21;73.19;102457.25;5071995;28;20037;-76
2023/09/24 04:48:40;;;;;;;0.10;0.10;;;;;;;12.21;72.48;102454.59;5058610;28;20033;-76
2023/09/24 04:51:06;;;;;;;0.10;0.10;;;;;;;12.21;73.01;102457.25;5072859;28;20016;-76
2023/09/24 04:53:33;;;;;;;0.10;0.10;;;;;;;12.21;72.70;102454.59;5072638;28;20028;-76
2023/09/24 04:55:59;;;;;;;1.38;1.15;;;;;;;12.21;72.80;102459.91;5072168;28;20043;-76
2023/09/24 04:58:25;;;;;;;0.13;0.13;;;;;;;12.21;72.29;102461.69;5071715;28;20036;-76
2023/09/24 05:00:51;;;;;;;0.10;0.10;;;;;;;12.18;72.76;102470.53;5072482;28;20029;-76
2023/09/24 05:03:17;;;;;;;0.10;0.10;;;;;;;12.17;72.31;102466.09;5072615;28;20111;-76
2023/09/24 05:05:44;;;;;;;0.10;0.10;;;;;;;12.17;72.86;102466.09;5071436;28;20017;-76
2023/09/24 05:08:10;;;;;;;0.20;0.20;;;;;;;12.16;73.08;102466.97;5072528;28;20111;-76
2023/09/24 05:10:40;;;;;;;0.10;0.10;;;;;;;12.19;73.09;102471.44;5072229;28;20034;-76
2023/09/24 05:13:07;;;;;;;0.10;0.10;;;;;;;12.14;72.66;102468.78;5071491;28;20036;-76
2023/09/24 05:15:33;;;;;;;0.10;0.10;;;;;;;12.15;72.62;102470.56;5071226;28;20079;-76
2023/09/24 05:17:59;;;;;;;0.10;0.10;;;;;;;12.13;72.80;102473.19;5072322;28;20024;-76
2023/09/24 05:20:25;;;;;;;0.10;0.10;;;;;;;12.12;72.74;102471.44;5071319;28;20040;-76
2023/09/24 05:22:51;;;;;;;0.13;0.13;;;;;;;12.12;72.67;102470.53;5071777;28;20031;-76
2023/09/24 05:25:19;;;;;;;0.10;0.10;;;;;;;12.12;72.41;102470.53;5071898;28;20021;-75
2023/09/24 05:27:45;;;;;;;0.30;0.30;;;;;;;12.10;72.54;102473.19;5070370;28;20436;-75
2023/09/24 05:30:12;;;;;;;0.10;0.10;;;;;;;12.10;72.34;102472.28;5071727;28;20024;-75
2023/09/24 05:32:38;;;;;;;0.10;0.10;;;;;;;12.09;72.15;102470.56;5071659;28;20062;-76
2023/09/24 05:35:05;;;;;;;0.10;0.10;;;;;;;12.07;72.33;102470.53;5065775;28;20083;-76
2023/09/24 05:37:31;;;;;;;0.10;0.10;;;;;;;12.06;72.41;102470.53;5071039;28;20028;-76
2023/09/24 05:39:57;;;;;;;0.10;0.10;;;;;;;12.03;72.92;102470.56;5071517;28;20033;-76
2023/09/24 05:42:23;;;;;;;0.10;0.10;;;;;;;12.03;72.84;102470.56;5063812;28;20040;-75
2023/09/24 05:44:49;;;;;;;0.10;0.10;;;;;;;12.01;73.13;102475.84;5059995;28;20572;-75
2023/09/24 05:47:15;;;;;;;0.10;0.10;;;;;;;12.02;73.05;102482.06;5055660;28;20021;-76
2023/09/24 05:49:43;;;;;;;0.10;0.10;;;;;;;12.03;72.65;102482.06;5051451;28;20082;-76
2023/09/24 05:52:09;;;;;;;0.10;0.10;;;;;;;12.02;72.75;102482.94;5051695;28;20139;-76
2023/09/24 05:54:36;;;;;;;0.10;0.10;;;;;;;12.01;72.84;102483.81;5051084;28;20090;-76
2023/09/24 05:57:03;;;;;;;0.10;0.10;;;;;;;12.04;72.42;102482.97;5051233;28;20043;-76
2023/09/24 05:59:29;;;;;;;0.20;0.20;;;;;;;12.05;73.34;102490.00;5051077;28;20021;-76
2023/09/24 06:01:55;;;;;;;0.13;0.13;;;;;;;12.09;72.84;102486.50;5051380;28;20032;-76
2023/09/24 06:04:21;;;;;;;0.10;0.10;;;;;;;12.11;72.90;102490.00;5050874;28;20544;-76
2023/09/24 06:06:48;;;;;;;0.10;0.10;;;;;;;12.13;72.82;102499.75;5050478;28;20029;-76
2023/09/24 06:09:14;;;;;;;0.40;0.40;;;;;;;12.14;73.18;102490.03;5051241;28;20029;-76
2023/09/24 06:11:40;;;;;;;0.10;0.10;;;;;;;12.14;72.74;102495.34;5053322;28;20025;-76
2023/09/24 06:14:08;;;;;;;0.10;0.10;;;;;;;12.16;72.65;102503.31;5051081;28;20111;-76
2023/09/24 06:16:36;;;;;;;0.40;0.40;;;;;;;12.18;73.47;102506.88;5050064;28;20474;-76
2023/09/24 06:19:03;;;;;;;0.82;0.82;;;;;;;12.20;73.26;102511.28;5051362;28;20021;-75
2023/09/24 06:21:29;;;;;;;0.30;0.30;;;;;;;12.20;73.30;102505.97;5050762;28;20040;-75
2023/09/24 06:23:56;;;;;;;0.10;0.10;;;;;;;12.21;73.50;102513.06;5050708;28;20490;-75
2023/09/24 06:26:22;;;;;;;0.10;0.10;;;;;;;12.23;73.23;102515.72;5049614;28;20040;-76
2023/09/24 06:28:48;;;;;;;0.10;0.10;;;;;;;12.24;73.73;102510.41;5056431;28;20445;-76
2023/09/24 06:31:14;;;;;;;0.73;0.73;;;;;;;12.28;73.16;102513.94;5050630;28;20021;-76
2023/09/24 06:33:40;;;;;;;0.10;0.10;;;;;;;12.30;72.94;102518.38;5050316;28;20025;-75
2023/09/24 06:36:08;;;;;;;0.20;0.20;;;;;;;12.28;73.60;102513.94;5050782;28;20064;-76
2023/09/24 06:38:35;;;;;;;0.10;0.10;;;;;;;12.32;73.40;102514.81;5050483;28;20074;-76
2023/09/24 06:41:02;;;;;;;0.10;0.10;;;;;;;12.37;73.51;102513.06;5063202;28;20082;-76
2023/09/24 06:43:30;;;;;;;0.20;0.20;;;;;;;12.40;73.45;102518.34;5054722;28;20028;-76
2023/09/24 06:45:57;;;;;;;0.10;0.10;;;;;;;12.42;73.31;102512.16;5067705;28;20025;-76
2023/09/24 06:48:25;;;;;;;1.02;0.50;;;;;;;12.48;73.02;102513.91;5070632;28;20802;-76
2023/09/24 06:50:53;;;;;;;0.10;0.10;;;;;;;12.49;73.71;102520.13;5068422;28;20033;-76
2023/09/24 06:53:20;;;;;;;0.10;0.10;;;;;;;12.53;73.45;102514.78;5070672;28;20035;-76
2023/09/24 06:55:46;;;;;;;0.30;0.30;;;;;;;12.56;73.88;102524.53;5069365;28;20397;-76
2023/09/24 06:58:13;;;;;;;0.10;0.10;;;;;;;12.57;73.60;102532.53;5059342;28;20032;-76
2023/09/24 07:00:39;;;;;;;0.10;0.10;;;;;;;12.65;73.74;102535.19;5070515;28;20039;-76
2023/09/24 07:03:06;;;;;;;0.13;0.13;;;;;;;12.67;74.12;102535.16;5069783;28;20372;-76
2023/09/24 07:05:32;;;;;;;0.10;0.10;;;;;;;12.74;73.40;102534.28;5068314;28;20028;-76
2023/09/24 07:07:58;;;;;;;0.30;0.30;;;;;;;12.80;73.50;102544.91;5067123;28;20031;-76
2023/09/24 07:10:24;;;;;;;0.15;0.15;;;;;;;12.85;73.60;102535.13;5070419;28;20032;-76
2023/09/24 07:12:52;;;;;;;0.20;0.20;;;;;;;12.89;73.72;102544.00;5061132;28;20024;-76
2023/09/24 07:15:19;;;;;;;0.17;0.17;;;;;;;12.90;74.03;102554.63;5054967;28;20032;-76
2023/09/24 07:17:45;;;;;;;0.10;0.10;;;;;;;12.98;73.77;102553.72;5069315;28;20031;-76
2023/09/24 07:20:13;;;;;;;0.65;0.45;;;;;;;13.04;73.57;102559.03;5070327;28;20107;-76
2023/09/24 07:22:39;;;;;;;0.38;0.38;;;;;;;13.08;74.09;102560.78;5067939;28;20016;-76
2023/09/24 07:25:06;;;;;;;0.20;0.20;;;;;;;13.12;73.52;102562.53;5062970;28;20135;-76
2023/09/24 07:27:32;;;;;;;0.13;0.13;;;;;;;13.20;73.70;102560.75;5054794;28;20068;-76
2023/09/24 07:29:58;;;;;;;1.55;1.02;;;;;;;13.27;73.58;102559.84;5063944;28;20467;-76
2023/09/24 07:32:24;;;;;;;0.28;0.28;;;;;;;13.31;73.69;102567.81;5069437;28;20073;-76
2023/09/24 07:34:50;;;;;;;0.10;0.10;;;;;;;13.34;73.68;102562.47;5064004;28;20056;-77
2023/09/24 07:37:17;;;;;;;0.10;0.10;;;;;;;13.46;73.36;102567.78;5070006;28;20032;-77
2023/09/24 07:39:43;;;;;;;0.38;0.38;;;;;;;13.52;73.65;102566.88;5072492;28;20040;-77
2023/09/24 07:42:09;;;;;;;0.10;0.10;;;;;;;13.61;73.40;102557.94;5060384;28;20402;-77
2023/09/24 07:44:36;;;;;;;0.20;0.20;;;;;;;13.64;73.52;102555.28;5061828;28;20126;-77
2023/09/24 07:47:02;;;;;;;2.65;0.98;;;;;;;13.73;73.40;102557.88;5063848;28;20084;-78
2023/09/24 07:49:28;;;;;;;0.10;0.10;;;;;;;13.85;73.13;102559.59;5061134;28;20115;-77
2023/09/24 07:51:54;;;;;;;0.52;0.52;;;;;;;13.95;73.21;102557.75;5069406;28;20031;-76
2023/09/24 07:54:21;;;;;;;0.13;0.13;;;;;;;13.95;73.10;102555.09;5073341;28;20021;-77
2023/09/24 07:56:47;;;;;;;0.20;0.20;;;;;;;14.04;72.87;102560.34;5070294;28;20060;-81
2023/09/24 07:59:13;;;;;;;0.32;0.32;;;;;;;14.17;72.82;102550.50;5073868;28;20020;-76
2023/09/24 08:01:39;;;;;;;0.32;0.32;;;;;;;14.23;72.45;102551.31;5072872;28;20028;-76
2023/09/24 08:04:05;;;;;;;0.93;0.70;;;;;;;14.34;72.49;102551.25;5057695;28;20041;-76
2023/09/24 08:06:31;;;;;;;12.57;0.90;;;;;;;14.44;72.27;102553.81;5052580;28;20025;-76
2023/09/24 08:08:58;;;;;;;0.65;0.65;;;;;;;14.54;72.03;102561.75;5067085;28;20556;-78
2023/09/24 08:11:25;;;;;;;0.30;0.30;;;;;;;14.57;70.98;102560.81;5069506;28;20082;-76
2023/09/24 08:13:51;;;;;;;0.10;0.10;;;;;;;14.70;71.10;102553.63;5064779;28;20059;-78
2023/09/24 08:16:17;;;;;;;1.05;1.05;;;;;;;14.83;71.23;102555.25;5057335;28;20040;-76
2023/09/24 08:18:44;;;;;;;0.10;0.10;;;;;;;14.92;71.47;102558.75;5056802;28;20110;-76
2023/09/24 08:21:10;;;;;;;0.10;0.10;;;;;;;15.03;71.08;102559.50;5053974;28;20069;-76
2023/09/24 08:23:36;;;;;;;0.10;0.10;;;;;;;15.10;70.35;102563.84;5052539;28;20033;-77
2023/09/24 08:26:03;;;;;;;0.85;0.85;;;;;;;15.13;69.66;102560.28;5052560;28;20025;-76
2023/09/24 08:28:29;;;;;;;0.10;0.10;;;;;;;15.34;70.30;102569.84;5062107;28;20029;-76
2023/09/24 08:30:55;;;;;;;0.25;0.25;;;;;;;15.43;69.18;102571.50;5053465;28;20033;-76
2023/09/24 08:33:21;;;;;;;0.10;0.10;;;;;;;15.61;69.51;102567.69;5052690;28;20036;-77
2023/09/24 08:35:47;;;;;;;0.45;0.45;;;;;;;15.71;69.94;102555.97;5051993;28;20040;-77
2023/09/24 08:38:14;;;;;;;0.10;0.10;;;;;;;15.77;68.16;102561.22;5053128;28;20053;-77
2023/09/24 08:40:41;;;;;;;0.10;0.10;;;;;;;15.81;66.85;102557.63;5052783;28;20021;-77
2023/09/24 08:43:16;;;;;;;0.10;0.10;;;;;;;16.05;68.45;102563.53;5052372;28;20037;-78
2023/09/24 08:45:42;;;;;;;0.10;0.10;;;;;;;16.10;67.69;102561.66;5068529;28;20103;-77
2023/09/24 08:48:09;;;;;;;0.10;0.10;;;;;;;16.23;67.80;102566.81;5067531;28;20371;-76
2023/09/24 08:50:38;;;;;;;0.47;0.47;;;;;;;16.36;67.51;102563.00;5051979;28;20052;-76
2023/09/24 08:53:10;;;;;;;0.10;0.10;;;;;;;16.48;67.54;102565.47;5052398;28;20017;-77
2023/09/24 08:55:38;;;;;;;0.13;0.13;;;;;;;16.60;67.14;102564.41;5050782;28;20429;-76
2023/09/24 08:58:05;;;;;;;0.08;0.08;;;;;;;16.68;66.59;102558.91;5055582;28;20116;-76
2023/09/24 09:00:31;;;;;;;0.10;0.10;;;;;;;16.73;65.16;102557.03;5068474;28;20033;-77
2023/09/24 09:03:03;;;;;;;0.38;0.38;;;;;;;16.91;65.21;102560.25;5067306;28;20028;-77
2023/09/24 09:05:33;;;;;;;0.10;0.10;;;;;;;16.98;66.28;102557.50;5055527;28;20025;-76
2023/09/24 09:08:01;;;;;;;0.10;0.10;;;;;;;17.03;63.74;102560.06;5064279;28;20529;-78
2023/09/24 09:10:30;;;;;;;0.20;0.20;;;;;;;17.20;64.74;102553.50;5072363;28;20409;-77
2023/09/24 09:13:15;;;;;;;0.10;0.10;;;;;;;17.36;63.67;102546.91;5068790;28;20037;-77
2023/09/24 09:15:43;;;;;;;0.10;0.10;;;;;;;17.35;63.59;102550.50;5054791;28;20108;-77
2023/09/24 09:18:26;;;;;;;0.15;0.15;;;;;;;17.60;64.04;102539.22;5065892;28;20036;-77
2023/09/24 09:21:00;;;;;;;0.20;0.20;;;;;;;17.65;64.28;102536.47;5061955;28;20048;-77
2023/09/24 09:23:32;;;;;;;0.10;0.10;;;;;;;17.79;63.19;102537.91;5073829;28;20036;-77
2023/09/24 09:25:59;;;;;;;0.10;0.10;;;;;;;17.86;63.04;102538.63;5058789;28;20029;-77
2023/09/24 09:28:28;;;;;;;0.38;0.38;;;;;;;17.87;61.48;102542.19;5066124;28;20067;-77
2023/09/24 09:31:06;;;;;;;0.20;0.20;;;;;;;17.99;60.51;102524.97;5058977;28;20048;-76
2023/09/24 09:33:35;;;;;;;0.52;0.52;;;;;;;18.06;60.92;102530.13;5051874;28;20055;-77
2023/09/24 09:36:02;;;;;;;0.15;0.15;;;;;;;18.05;60.26;102536.41;5057090;28;20486;-77
2023/09/24 09:38:29;;;;;;;0.40;0.40;;;;;;;18.20;60.72;102534.28;5052071;28;20044;-77
2023/09/24 09:40:57;;;;;;;0.32;0.32;;;;;;;18.22;59.55;102536.00;5052170;28;20059;-77
2023/09/24 09:43:25;;;;;;;0.40;0.40;;;;;;;18.31;59.66;102521.47;5058762;28;20498;-77
2023/09/24 09:45:55;;;;;;;0.10;0.10;;;;;;;18.42;60.17;102524.75;5062821;28;20032;-77
2023/09/24 09:48:28;;;;;;;0.10;0.10;;;;;;;18.49;59.96;102529.97;5067501;28;20028;-77
2023/09/24 09:51:00;;;;;;;0.10;0.10;;;;;;;18.40;58.97;102531.09;5065521;28;20025;-76
2023/09/24 09:53:32;;;;;;;0.10;0.10;;;;;;;18.55;58.05;102524.44;5062236;28;20292;-77
2023/09/24 09:56:01;;;;;;;0.10;0.10;;;;;;;18.54;56.57;102517.28;5059734;28;20028;-77
2023/09/24 09:58:29;;;;;;;0.10;0.10;;;;;;;18.71;58.29;102520.41;5063978;28;20028;-77
2023/09/24 10:00:55;;;;;;;0.10;0.10;;;;;;;18.77;58.26;102514.00;5051734;28;20040;-77
2023/09/24 10:03:22;;;;;;;0.10;0.10;;;;;;;18.87;57.35;102509.25;5051514;28;20036;-77
2023/09/24 10:05:49;;;;;;;0.10;0.10;;;;;;;18.96;56.84;102508.13;5057658;28;20048;-77
2023/09/24 10:08:38;;;;;;;0.10;0.10;;;;;;;19.16;56.18;102515.59;5060497;28;20024;-77
2023/09/24 10:11:05;;;;;;;0.10;0.10;;;;;;;19.14;54.58;102514.75;5055725;28;20029;-77
2023/09/24 10:13:52;;;;;;;0.10;0.10;;;;;;;19.30;54.98;102505.34;5058345;28;20342;-77
2023/09/24 10:19:04;;;;;;;0.75;0.75;;;;;;;19.54;55.06;102490.25;5113742;27;20899;-77
2023/09/24 10:21:33;;;;;;;0.10;0.10;;;;;;;19.66;54.73;102502.41;5088214;28;20401;-77
2023/09/24 10:27:03;;;;;;;0.45;0.45;;;;;;;19.86;53.77;102490.16;5133153;27;20764;-77
2023/09/24 10:32:29;;;;;;;0.00;0.00;;;;;;;20.09;55.07;102477.75;5075007;28;20391;-78
2023/09/24 10:37:34;;;;;;;0.10;0.10;;;;;;;20.25;54.61;102484.38;5114629;27;20995;-79
2023/09/24 10:42:39;;;;;;;0.10;0.10;;;;;;;20.31;51.52;102496.72;5112473;27;20396;-78
2023/09/24 10:47:46;;;;;;;0.20;0.20;;;;;;;20.43;52.84;102492.75;5097837;27;20393;-78
2023/09/24 10:50:17;;;;;;;0.00;0.00;;;;;;;20.30;50.24;102490.47;5092319;28;20024;-78
2023/09/24 10:52:47;;;;;;;0.10;0.10;;;;;;;20.29;50.91;102490.53;5088503;28;20021;-78
2023/09/24 10:55:16;;;;;;;0.20;0.20;;;;;;;20.43;52.50;102499.00;5093417;28;20079;-78
2023/09/24 10:57:45;;;;;;;0.10;0.10;;;;;;;20.49;52.53;102495.22;5089458;28;20043;-78
2023/09/24 11:00:20;;;;;;;0.10;0.10;;;;;;;20.68;51.36;102490.91;5095084;28;20049;-78
2023/09/24 11:03:03;;;;;;;0.10;0.10;;;;;;;20.79;51.13;102493.25;5087869;28;20099;-77
2023/09/24 11:05:33;;;;;;;0.13;0.13;;;;;;;20.59;46.33;102485.88;5086549;28;20062;-77
2023/09/24 11:07:59;;;;;;;1.45;1.35;;;;;;;20.68;47.79;102479.25;5072882;28;20028;-77
2023/09/24 11:10:26;;;;;;;0.20;0.20;;;;;;;20.79;48.94;102482.47;5070638;28;20020;-78
2023/09/24 11:12:56;;;;;;;0.10;0.10;;;;;;;20.92;50.74;102485.59;5075337;28;20505;-77
2023/09/24 11:15:24;;;;;;;0.00;0.00;;;;;;;21.06;50.31;102474.28;5076676;28;20561;-77
2023/09/24 11:17:52;;;;;;;0.10;0.10;;;;;;;21.11;49.15;102468.69;5080011;28;20037;-77
2023/09/24 11:20:21;;;;;;;0.10;0.10;;;;;;;21.10;49.56;102475.06;5071753;28;20044;-77
2023/09/24 11:23:08;;;;;;;0.50;0.50;;;;;;;21.22;48.09;102477.28;5077837;28;20038;-77
2023/09/24 11:25:35;;;;;;;0.10;0.10;;;;;;;21.34;48.94;102476.78;5072163;28;20020;-78
2023/09/24 11:28:02;;;;;;;0.10;0.10;;;;;;;21.39;48.81;102471.19;5074779;28;20048;-77
2023/09/24 11:33:23;;;;;;;0.10;0.10;;;;;;;21.36;48.37;102473.13;5075714;28;20395;-77
2023/09/24 11:35:51;;;;;;;0.10;0.10;;;;;;;21.29;49.14;102470.69;5063361;28;20047;-78
2023/09/24 11:38:35;;;;;;;0.10;0.10;;;;;;;21.42;48.43;102464.81;5069721;28;20028;-76
2023/09/24 11:41:08;;;;;;;0.10;0.10;;;;;;;21.54;48.81;102467.00;5054915;28;20036;-76
2023/09/24 11:43:36;;;;;;;0.38;0.38;;;;;;;21.56;48.52;102454.38;5065197;28;20021;-80
2023/09/24 11:46:02;;;;;;;0.10;0.10;;;;;;;21.71;48.30;102452.88;5068271;28;20024;-80